Time;durP1;ratioP1;P1;durP2;ratioP2;P2;SDS_P1;SDS_P2;PMS_P1;PMS_P2;Temp;Humidity;BMP_temperature;BMP_pressure;BME280_temperature;BME280_humidity;BME280_pressure;Samples;Min_cycle;Max_cycle;Signal;HPM_P1;HPM_P2
2023/03/24 00:00:20;;;;;;;11.85;8.23;;;;;;;24.30;34.06;99423.69;4360678;32;33370;-63
2023/03/24 00:02:50;;;;;;;11.20;7.75;;;;;;;24.28;34.08;99425.81;4372340;32;33068;-60
2023/03/24 00:05:20;;;;;;;11.15;8.02;;;;;;;24.28;34.17;99423.09;4349091;32;34020;-63
2023/03/24 00:07:48;;;;;;;11.70;8.55;;;;;;;24.27;34.11;99427.72;4361827;32;34819;-67
2023/03/24 00:10:21;;;;;;;12.23;8.55;;;;;;;24.28;34.10;99423.09;4360875;32;34326;-65
2023/03/24 00:12:50;;;;;;;11.52;8.00;;;;;;;24.26;34.16;99417.88;4360625;32;33524;-61
2023/03/24 00:15:19;;;;;;;12.37;8.25;;;;;;;24.25;34.15;99418.97;4360878;32;33755;-64
2023/03/24 00:17:49;;;;;;;;;;;;;;;24.23;34.24;99414.81;4361062;32;33941;-61
2023/03/24 00:20:18;;;;;;;11.25;8.23;;;;;;;24.31;34.14;99409.00;4361805;32;34737;-65
2023/03/24 00:22:49;;;;;;;11.05;7.60;;;;;;;24.24;34.28;99421.91;4360803;32;33460;-58
2023/03/24 00:25:19;;;;;;;11.77;7.45;;;;;;;24.23;34.32;99420.25;4348743;32;34512;-61
2023/03/24 00:27:47;;;;;;;11.45;7.72;;;;;;;24.22;34.45;99415.88;4348443;32;33909;-60
2023/03/24 00:30:16;;;;;;;14.48;7.22;;;;;;;24.22;34.41;99415.88;4360820;32;34239;-68
2023/03/24 00:32:45;;;;;;;11.75;7.28;;;;;;;24.21;34.39;99412.34;4360745;32;33450;-63
2023/03/24 00:35:13;;;;;;;11.07;7.97;;;;;;;24.20;34.41;99410.66;4360569;32;35018;-59
2023/03/24 00:37:41;;;;;;;14.13;7.75;;;;;;;24.19;34.38;99409.81;4360548;32;33726;-64
2023/03/24 00:40:15;;;;;;;12.15;7.32;;;;;;;24.18;34.47;99408.19;4348510;32;32594;-66
2023/03/24 00:42:44;;;;;;;11.52;7.87;;;;;;;24.16;34.53;99402.16;4360954;32;34138;-68
2023/03/24 00:45:14;;;;;;;13.10;7.82;;;;;;;24.17;34.52;99401.06;4360770;32;33956;-63
2023/03/24 00:47:43;;;;;;;11.75;8.57;;;;;;;24.17;34.59;99390.16;4360545;32;33784;-61
2023/03/24 00:50:14;;;;;;;10.70;7.53;;;;;;;24.17;34.58;99394.81;4360684;32;34574;-64
2023/03/24 00:52:43;;;;;;;12.77;8.10;;;;;;;24.16;34.63;99382.25;4360629;32;34131;-65
2023/03/24 00:55:14;;;;;;;9.85;7.10;;;;;;;24.16;34.72;99382.25;4361647;32;34929;-62
2023/03/24 00:57:53;;;;;;;13.23;7.72;;;;;;;24.16;34.76;99368.63;4361718;32;33575;-61
2023/03/24 01:00:23;;;;;;;10.77;7.53;;;;;;;24.15;34.71;99369.66;4360342;32;33978;-65
2023/03/24 01:02:53;;;;;;;12.00;7.72;;;;;;;24.16;34.68;99360.44;4361851;32;33401;-62
2023/03/24 01:05:26;;;;;;;10.85;7.80;;;;;;;24.14;34.71;99362.56;4360558;32;33488;-61
2023/03/24 01:08:02;;;;;;;11.60;7.90;;;;;;;24.14;34.76;99362.56;4361378;32;34699;-58
2023/03/24 01:10:41;;;;;;;13.02;7.50;;;;;;;24.13;34.87;99363.63;4359994;32;33910;-67
2023/03/24 01:13:09;;;;;;;11.55;7.15;;;;;;;24.12;34.86;99359.25;4370281;32;33384;-60
2023/03/24 01:15:37;;;;;;;12.60;7.35;;;;;;;24.11;34.90;99352.97;4359898;32;32434;-67
2023/03/24 01:18:05;;;;;;;13.62;8.00;;;;;;;24.11;34.93;99349.44;4360401;32;33676;-60
2023/03/24 01:20:34;;;;;;;10.23;7.37;;;;;;;24.08;35.02;99339.84;4361499;32;34499;-63
2023/03/24 01:23:04;;;;;;;13.38;8.13;;;;;;;24.08;35.08;99347.19;4361599;32;33492;-64
2023/03/24 01:25:31;;;;;;;12.77;7.45;;;;;;;24.05;35.18;99334.84;4348233;32;33914;-62
2023/03/24 01:27:59;;;;;;;10.23;7.18;;;;;;;24.06;35.26;99333.81;4360255;32;35316;-65
2023/03/24 01:30:27;;;;;;;11.43;7.18;;;;;;;24.04;35.19;99330.47;4361551;32;34173;-59
2023/03/24 01:32:55;;;;;;;14.00;6.82;;;;;;;24.05;35.18;99331.31;4360144;32;33136;-64
2023/03/24 01:35:24;;;;;;;10.48;6.45;;;;;;;24.05;35.25;99323.94;4372541;32;33956;-65
2023/03/24 01:37:56;;;;;;;10.45;7.03;;;;;;;24.06;35.24;99324.78;4360347;32;34033;-66
2023/03/24 01:40:29;;;;;;;10.15;6.68;;;;;;;24.05;35.31;99326.69;4361198;32;34049;-62
2023/03/24 01:42:57;;;;;;;10.90;7.00;;;;;;;24.02;35.25;99321.72;4372572;32;34162;-65
2023/03/24 01:46:02;;;;;;;10.68;6.35;;;;;;;24.02;35.36;99323.63;4360022;32;34567;-65
2023/03/24 01:48:29;;;;;;;12.30;7.37;;;;;;;24.03;35.36;99328.84;4361408;32;33785;-62
2023/03/24 01:51:04;;;;;;;11.48;7.00;;;;;;;24.00;35.44;99320.31;4360110;32;33214;-68
2023/03/24 01:53:32;;;;;;;10.90;6.70;;;;;;;23.99;35.46;99322.19;4359942;32;33344;-66
2023/03/24 01:56:01;;;;;;;10.20;6.87;;;;;;;23.98;35.50;99320.56;4360132;32;34201;-60
2023/03/24 01:58:30;;;;;;;10.90;6.57;;;;;;;23.98;35.51;99317.84;4361289;32;34650;-68
2023/03/24 02:00:59;;;;;;;11.68;7.10;;;;;;;23.98;35.46;99326.00;4360053;32;33980;-66
2023/03/24 02:03:32;;;;;;;11.33;7.00;;;;;;;23.98;35.53;99325.19;4361408;32;32194;-63
2023/03/24 02:06:03;;;;;;;10.38;7.00;;;;;;;23.98;35.51;99323.28;4360278;32;33466;-63
2023/03/24 02:08:52;;;;;;;8.82;6.32;;;;;;;23.98;35.57;99315.09;4359976;32;34555;-63
2023/03/24 02:11:21;;;;;;;12.05;6.70;;;;;;;24.00;35.61;99310.22;4360520;32;34539;-66
2023/03/24 02:13:49;;;;;;;10.40;6.97;;;;;;;23.98;35.64;99309.66;4360341;32;33368;-68
2023/03/24 02:16:36;;;;;;;9.13;6.65;;;;;;;23.97;35.64;99315.31;4360027;32;34776;-65
2023/03/24 02:19:36;;;;;;;9.13;6.43;;;;;;;23.97;35.59;99316.19;4359795;32;34750;-57
2023/03/24 02:22:23;;;;;;;10.00;6.18;;;;;;;23.99;35.57;99315.94;4361286;32;34004;-61
2023/03/24 02:25:05;;;;;;;8.90;6.32;;;;;;;23.97;35.61;99307.16;4361594;32;34315;-60
2023/03/24 02:28:25;;;;;;;10.25;6.68;;;;;;;23.95;35.67;99307.41;4362599;32;34546;-67
2023/03/24 02:31:02;;;;;;;;;;;;;;;23.93;35.63;99315.00;4358973;32;34793;-64
2023/03/24 02:33:36;;;;;;;10.23;6.65;;;;;;;24.00;35.48;99317.56;4362773;32;34803;-58
2023/03/24 02:36:15;;;;;;;10.30;6.90;;;;;;;23.92;35.66;99316.03;4362597;32;33178;-66
2023/03/24 02:39:30;;;;;;;9.30;6.45;;;;;;;23.91;35.74;99323.41;4361543;32;34807;-68
2023/03/24 02:42:26;;;;;;;9.13;6.28;;;;;;;23.90;35.79;99320.94;4330986;33;34835;-60
2023/03/24 02:45:04;;;;;;;10.52;6.50;;;;;;;23.90;35.76;99319.03;4330655;33;33031;-58
2023/03/24 02:47:45;;;;;;;9.88;6.30;;;;;;;23.88;35.86;99309.44;4354635;32;33261;-63
2023/03/24 02:50:44;;;;;;;9.75;7.00;;;;;;;23.88;35.85;99312.19;4358577;32;33640;-66
2023/03/24 02:53:26;;;;;;;9.13;6.50;;;;;;;23.88;35.82;99304.81;4347464;32;35128;-65
2023/03/24 02:55:58;;;;;;;9.90;6.80;;;;;;;23.87;35.81;99294.97;4346818;33;33837;-63
2023/03/24 02:58:51;;;;;;;9.25;6.20;;;;;;;23.84;35.81;99286.47;4346395;33;34182;-62
2023/03/24 03:01:31;;;;;;;9.43;6.43;;;;;;;23.87;35.77;99289.53;4353489;32;33759;-66
2023/03/24 03:04:02;;;;;;;9.00;6.00;;;;;;;23.86;35.83;99287.06;4347123;32;33681;-63
2023/03/24 03:06:31;;;;;;;;;;;;;;;23.83;35.84;99288.38;4346983;32;33767;-68
2023/03/24 03:09:02;;;;;;;9.30;6.10;;;;;;;23.93;35.66;99285.03;4346796;33;33276;-68
2023/03/24 03:11:30;;;;;;;9.65;6.32;;;;;;;23.85;35.79;99274.50;4334549;33;34669;-64
2023/03/24 03:14:21;;;;;;;9.48;6.22;;;;;;;23.82;35.84;99275.81;4346159;33;33842;-61
2023/03/24 03:16:58;;;;;;;9.20;6.55;;;;;;;23.83;35.85;99273.94;4346336;33;32893;-68
2023/03/24 03:19:32;;;;;;;9.80;6.57;;;;;;;23.81;35.89;99281.50;4346349;33;34497;-64
2023/03/24 03:22:01;;;;;;;7.37;5.85;;;;;;;23.80;35.90;99282.59;4346368;32;34783;-67
2023/03/24 03:24:40;;;;;;;9.88;6.35;;;;;;;23.79;35.91;99278.22;4346162;33;34780;-63
2023/03/24 03:27:13;;;;;;;9.38;5.45;;;;;;;23.79;35.93;99278.22;4347272;32;34045;-62
2023/03/24 03:29:45;;;;;;;8.05;6.03;;;;;;;23.80;35.93;99272.50;4346498;32;33330;-66
2023/03/24 03:32:16;;;;;;;8.77;5.95;;;;;;;23.79;35.94;99270.84;4346515;33;33751;-68
2023/03/24 03:34:59;;;;;;;9.15;6.18;;;;;;;23.79;35.99;99272.75;4346312;33;34673;-69
2023/03/24 03:37:50;;;;;;;11.57;6.55;;;;;;;23.79;36.03;99276.31;4333398;33;33714;-63
2023/03/24 03:40:26;;;;;;;9.48;6.00;;;;;;;23.80;36.02;99285.31;4347042;33;33297;-63
2023/03/24 03:42:55;;;;;;;9.73;6.35;;;;;;;23.79;36.06;99289.94;4347009;32;34621;-64
2023/03/24 03:45:22;;;;;;;8.75;5.70;;;;;;;23.79;36.08;99286.38;4347383;33;34138;-64
2023/03/24 03:47:50;;;;;;;8.45;6.03;;;;;;;23.78;36.13;99279.25;4347225;33;34445;-66
2023/03/24 03:50:18;;;;;;;8.95;5.20;;;;;;;23.78;36.13;99279.25;4351651;32;32297;-61
2023/03/24 03:52:45;;;;;;;9.93;6.47;;;;;;;23.77;36.08;99272.97;4361155;32;33874;-63
2023/03/24 03:55:12;;;;;;;8.80;5.72;;;;;;;23.78;36.12;99277.37;4361312;32;33920;-62
2023/03/24 03:57:40;;;;;;;10.80;5.82;;;;;;;23.77;36.16;99272.97;4362482;32;33442;-66
2023/03/24 04:00:14;;;;;;;9.27;5.90;;;;;;;23.77;36.13;99274.88;4361074;32;34081;-65
2023/03/24 04:03:09;;;;;;;10.73;6.15;;;;;;;23.77;36.18;99274.88;4361194;32;34751;-66
2023/03/24 04:05:45;;;;;;;7.32;5.35;;;;;;;23.80;36.10;99268.97;4354625;32;33571;-68
2023/03/24 04:08:31;;;;;;;11.57;5.95;;;;;;;23.77;36.11;99267.53;4360944;32;33849;-67
2023/03/24 04:11:02;;;;;;;10.43;6.40;;;;;;;23.76;36.13;99260.44;4362284;32;33220;-65
2023/03/24 04:13:36;;;;;;;7.85;5.45;;;;;;;23.73;36.18;99255.47;4362215;32;34532;-65
2023/03/24 04:16:07;;;;;;;9.50;5.25;;;;;;;23.75;36.21;99249.78;4360980;32;34269;-62
2023/03/24 04:18:43;;;;;;;8.35;5.80;;;;;;;23.75;36.17;99260.69;4362318;32;34496;-64
2023/03/24 04:21:27;;;;;;;8.38;5.70;;;;;;;23.74;36.18;99265.31;4360744;32;34722;-65
2023/03/24 04:24:27;;;;;;;7.62;5.57;;;;;;;23.75;36.16;99266.97;4361106;32;33442;-63
2023/03/24 04:27:08;;;;;;;8.15;5.37;;;;;;;23.76;36.17;99265.88;4362001;32;33617;-68
2023/03/24 04:29:51;;;;;;;8.50;5.53;;;;;;;23.74;36.16;99259.03;4361193;32;34688;-69
2023/03/24 04:32:31;;;;;;;9.52;5.87;;;;;;;23.73;36.19;99260.09;4360648;32;33401;-64
2023/03/24 04:35:05;;;;;;;10.88;5.97;;;;;;;23.73;36.20;99257.34;4360568;32;32871;-61
2023/03/24 04:37:36;;;;;;;11.07;5.97;;;;;;;23.71;36.29;99262.22;4348706;32;33981;-63
2023/03/24 04:40:10;;;;;;;8.95;5.78;;;;;;;23.71;36.25;99262.22;4360993;32;33459;-66
2023/03/24 04:42:46;;;;;;;8.82;5.47;;;;;;;23.71;36.24;99265.78;4360921;32;33211;-68
2023/03/24 04:45:14;;;;;;;11.73;6.03;;;;;;;23.71;36.29;99265.78;4336591;32;33079;-68
2023/03/24 04:47:49;;;;;;;9.40;5.90;;;;;;;23.69;36.30;99267.94;4360449;32;34695;-67
2023/03/24 04:50:38;;;;;;;10.80;5.97;;;;;;;23.70;36.32;99264.13;4360722;32;33280;-62
2023/03/24 04:53:07;;;;;;;8.57;5.70;;;;;;;23.72;36.29;99266.59;4360538;32;33436;-61
2023/03/24 04:55:57;;;;;;;8.53;5.67;;;;;;;23.70;36.37;99268.75;4360368;32;32524;-67
2023/03/24 04:58:25;;;;;;;;;;;;;;;23.72;36.34;99266.59;4372512;32;33973;-65
2023/03/24 05:00:55;;;;;;;10.77;5.35;;;;;;;23.77;36.20;99263.97;4359938;32;34114;-61
2023/03/24 05:03:24;;;;;;;12.05;5.47;;;;;;;23.69;36.42;99267.94;4361498;32;33467;-65
2023/03/24 05:05:52;;;;;;;9.70;5.57;;;;;;;23.66;36.47;99274.69;4348267;32;32803;-68
2023/03/24 05:08:20;;;;;;;10.23;5.53;;;;;;;23.67;36.51;99278.22;4360236;32;33757;-64
2023/03/24 05:10:48;;;;;;;9.07;5.45;;;;;;;23.64;36.59;99289.59;4348268;32;34468;-62
2023/03/24 05:13:15;;;;;;;14.00;6.22;;;;;;;23.66;36.54;99284.75;4361708;32;33412;-68
2023/03/24 05:15:45;;;;;;;9.83;6.20;;;;;;;23.66;36.42;99285.56;4348026;32;34433;-68
2023/03/24 05:18:14;;;;;;;12.07;5.97;;;;;;;23.66;36.23;99288.28;4361070;32;33664;-69
2023/03/24 05:20:41;;;;;;;9.75;5.68;;;;;;;23.67;36.04;99295.38;4347609;32;33734;-61
2023/03/24 05:23:10;;;;;;;12.25;5.53;;;;;;;23.64;35.94;99285.00;4359217;32;33181;-63
2023/03/24 05:25:38;;;;;;;10.68;5.82;;;;;;;23.63;35.91;99275.13;4361565;32;33640;-61
2023/03/24 05:28:06;;;;;;;9.85;5.95;;;;;;;23.62;35.87;99273.47;4361646;32;34298;-68
2023/03/24 05:30:34;;;;;;;7.82;5.50;;;;;;;23.61;35.84;99280.00;4361867;32;33347;-63
2023/03/24 05:33:02;;;;;;;9.43;6.05;;;;;;;23.62;35.79;99281.62;4348236;32;32555;-68
2023/03/24 05:35:29;;;;;;;9.32;5.28;;;;;;;23.62;35.78;99287.09;4346295;32;34029;-62
2023/03/24 05:37:57;;;;;;;8.07;5.72;;;;;;;23.62;35.71;99286.25;4358341;32;34060;-64
2023/03/24 05:40:25;;;;;;;9.52;5.55;;;;;;;23.60;35.69;99294.69;4358250;32;33936;-62
2023/03/24 05:42:53;;;;;;;12.52;5.95;;;;;;;23.61;35.67;99288.16;4359717;32;32876;-68
2023/03/24 05:45:21;;;;;;;11.25;5.60;;;;;;;23.61;35.65;99288.16;4358332;32;33447;-63
2023/03/24 05:47:48;;;;;;;9.90;5.30;;;;;;;23.60;35.62;99302.84;4357757;32;33329;-67
2023/03/24 05:50:17;;;;;;;9.27;6.25;;;;;;;23.60;35.60;99305.56;4359330;32;33827;-63
2023/03/24 05:52:45;;;;;;;11.88;5.75;;;;;;;23.60;35.59;99304.75;4361531;32;33445;-67
2023/03/24 05:55:14;;;;;;;7.90;6.00;;;;;;;23.58;35.56;99299.53;4360405;32;33097;-67
2023/03/24 05:57:42;;;;;;;10.68;5.57;;;;;;;23.59;35.49;99298.44;4360139;32;33594;-63
2023/03/24 06:00:22;;;;;;;9.52;5.72;;;;;;;23.58;35.49;99304.97;4359359;32;33908;-66
2023/03/24 06:02:50;;;;;;;9.65;5.45;;;;;;;23.57;35.50;99297.03;4359861;32;33662;-64
2023/03/24 06:05:19;;;;;;;8.13;5.53;;;;;;;23.57;35.46;99300.59;4360277;32;34728;-64
2023/03/24 06:07:47;;;;;;;8.27;5.53;;;;;;;23.57;35.45;99294.31;4348010;32;33666;-69
2023/03/24 06:10:17;;;;;;;10.73;6.07;;;;;;;23.57;35.45;99294.31;4359958;32;33851;-61
2023/03/24 06:12:45;;;;;;;10.43;5.65;;;;;;;23.55;35.43;99297.28;4360154;32;32817;-66
2023/03/24 06:15:16;;;;;;;10.43;5.70;;;;;;;23.56;35.40;99298.94;4359801;32;33472;-67
2023/03/24 06:17:45;;;;;;;8.32;5.97;;;;;;;23.54;35.40;99295.62;4372542;32;34085;-66
2023/03/24 06:20:14;;;;;;;8.85;5.95;;;;;;;23.55;35.39;99300.03;4361155;32;33907;-67
2023/03/24 06:22:44;;;;;;;8.63;6.22;;;;;;;23.55;35.34;99307.34;4359883;32;32360;-68
2023/03/24 06:25:14;;;;;;;8.70;5.68;;;;;;;23.54;35.34;99298.34;4359781;32;33660;-61
2023/03/24 06:27:47;;;;;;;8.10;5.80;;;;;;;23.53;35.36;99298.59;4359906;32;34720;-67
2023/03/24 06:30:17;;;;;;;8.85;5.37;;;;;;;23.53;35.33;99307.59;4348132;32;32775;-61
2023/03/24 06:32:45;;;;;;;11.68;5.72;;;;;;;23.51;35.34;99304.28;4360923;32;33374;-66
2023/03/24 06:35:14;;;;;;;9.85;5.22;;;;;;;23.52;35.32;99305.94;4361109;32;34375;-66
2023/03/24 06:37:42;;;;;;;11.95;5.87;;;;;;;23.51;35.32;99298.84;4347449;32;33312;-65
2023/03/24 06:40:13;;;;;;;8.68;5.82;;;;;;;23.51;35.29;99304.28;4347481;32;34212;-62
2023/03/24 06:42:41;;;;;;;7.50;5.15;;;;;;;23.50;35.28;99294.47;4347824;32;32953;-64
2023/03/24 06:45:09;;;;;;;8.75;5.20;;;;;;;23.50;35.25;99293.59;4359502;32;33793;-66
2023/03/24 06:47:36;;;;;;;9.45;5.47;;;;;;;23.50;35.26;99283.56;4359503;32;34745;-62
2023/03/24 06:50:05;;;;;;;8.60;6.00;;;;;;;23.49;35.26;99281.91;4356602;32;33488;-68
2023/03/24 06:52:34;;;;;;;8.75;5.65;;;;;;;23.50;35.24;99286.28;4344491;33;33466;-61
2023/03/24 06:55:02;;;;;;;8.80;5.28;;;;;;;23.49;35.23;99287.34;4344612;33;33823;-66
2023/03/24 06:57:30;;;;;;;8.60;5.53;;;;;;;23.48;35.23;99276.69;4344265;33;33042;-66
2023/03/24 07:00:04;;;;;;;6.78;5.12;;;;;;;23.49;35.23;99272.91;4345606;32;32921;-64
2023/03/24 07:02:34;;;;;;;8.00;4.75;;;;;;;23.49;35.24;99275.63;4344363;33;32260;-62
2023/03/24 07:05:07;;;;;;;7.12;4.75;;;;;;;23.48;35.23;99272.06;4345847;33;34017;-63
2023/03/24 07:07:36;;;;;;;7.95;5.25;;;;;;;23.48;35.23;99268.53;4332790;33;34711;-69
2023/03/24 07:10:08;;;;;;;8.02;5.18;;;;;;;23.48;35.22;99269.34;4333152;33;33502;-65
2023/03/24 07:12:37;;;;;;;7.82;4.78;;;;;;;23.48;35.21;99271.25;4334515;33;32313;-66
2023/03/24 07:15:07;;;;;;;8.40;5.28;;;;;;;23.49;35.18;99273.72;4346160;33;32741;-62
2023/03/24 07:17:35;;;;;;;10.23;6.15;;;;;;;23.48;35.19;99272.06;4347656;33;33983;-66
2023/03/24 07:20:07;;;;;;;7.20;5.07;;;;;;;23.48;35.15;99274.78;4347839;33;33592;-66
2023/03/24 07:22:37;;;;;;;8.90;4.85;;;;;;;23.46;35.13;99271.50;4347828;32;32350;-66
2023/03/24 07:25:13;;;;;;;8.85;4.57;;;;;;;23.46;35.08;99268.78;4334846;33;33133;-65
2023/03/24 07:27:41;;;;;;;7.82;5.10;;;;;;;23.48;35.10;99265.81;4334341;33;33758;-65
2023/03/24 07:30:10;;;;;;;7.28;5.30;;;;;;;23.48;35.04;99265.81;4351209;32;34240;-68
2023/03/24 07:32:38;;;;;;;7.70;4.70;;;;;;;23.48;35.03;99255.75;4361725;32;33090;-62
2023/03/24 07:35:06;;;;;;;8.85;5.22;;;;;;;23.48;35.01;99255.75;4359335;32;34646;-61
2023/03/24 07:37:34;;;;;;;7.60;4.85;;;;;;;23.49;35.00;99259.28;4373598;32;33826;-62
2023/03/24 07:40:05;;;;;;;8.55;5.47;;;;;;;23.49;34.96;99256.56;4362631;32;33991;-65
2023/03/24 07:42:33;;;;;;;9.20;5.07;;;;;;;23.49;34.99;99259.28;4361104;32;34015;-62
2023/03/24 07:45:10;;;;;;;9.02;5.50;;;;;;;23.49;34.98;99257.38;4361415;32;34725;-69
2023/03/24 07:47:38;;;;;;;7.32;4.95;;;;;;;23.49;34.97;99262.00;4360922;32;34824;-63
2023/03/24 07:50:09;;;;;;;7.78;5.53;;;;;;;23.48;34.99;99255.75;4362005;32;33220;-64
2023/03/24 07:52:37;;;;;;;8.10;5.05;;;;;;;23.48;34.97;99263.91;4362193;32;33247;-62
2023/03/24 07:55:07;;;;;;;7.67;5.20;;;;;;;23.51;34.97;99270.78;4361044;32;33723;-62
2023/03/24 07:57:40;;;;;;;7.90;4.60;;;;;;;23.50;34.94;99269.09;4361325;32;34125;-64
2023/03/24 08:00:16;;;;;;;8.27;5.62;;;;;;;23.50;34.98;99260.94;4361204;32;34482;-65
2023/03/24 08:02:48;;;;;;;7.28;4.70;;;;;;;23.50;34.94;99258.22;4361174;32;32163;-61
2023/03/24 08:05:20;;;;;;;;;;;;;;;23.49;34.96;99262.84;4361155;32;34048;-66
2023/03/24 08:07:52;;;;;;;6.72;4.72;;;;;;;23.58;34.79;99264.13;4362511;32;33810;-62
2023/03/24 08:10:22;;;;;;;7.60;5.25;;;;;;;23.52;34.88;99269.72;4360871;32;33911;-69
2023/03/24 08:12:50;;;;;;;9.32;5.47;;;;;;;23.49;34.93;99260.09;4360774;32;33439;-65
2023/03/24 08:15:17;;;;;;;8.65;5.05;;;;;;;23.49;34.94;99254.66;4360916;32;32822;-66
2023/03/24 08:17:46;;;;;;;7.93;5.40;;;;;;;23.48;34.96;99253.00;4348503;32;32905;-61
2023/03/24 08:20:14;;;;;;;8.50;5.12;;;;;;;23.48;34.99;99252.19;4360668;32;33835;-61
2023/03/24 08:22:42;;;;;;;7.57;5.12;;;;;;;23.48;34.97;99247.56;4348000;32;33133;-67
2023/03/24 08:25:11;;;;;;;7.43;5.07;;;;;;;23.48;34.99;99244.84;4360883;32;33867;-64
2023/03/24 08:27:38;;;;;;;9.95;5.30;;;;;;;23.49;34.99;99240.22;4360590;32;34010;-68
2023/03/24 08:30:07;;;;;;;7.65;5.60;;;;;;;23.49;34.99;99238.31;4360731;32;34193;-61
2023/03/24 08:32:35;;;;;;;8.18;5.35;;;;;;;23.49;35.00;99230.16;4360912;32;32623;-69
2023/03/24 08:35:03;;;;;;;6.95;4.60;;;;;;;23.49;35.00;99218.44;4361858;32;34440;-60
2023/03/24 08:37:31;;;;;;;7.55;5.00;;;;;;;23.50;35.02;99217.38;4360874;32;34178;-63
2023/03/24 08:40:04;;;;;;;7.05;4.97;;;;;;;23.49;35.03;99219.25;4360741;32;33941;-61
2023/03/24 08:42:32;;;;;;;8.07;4.50;;;;;;;23.50;35.04;99214.66;4348722;32;32291;-61
2023/03/24 08:44:59;;;;;;;8.80;5.55;;;;;;;23.49;35.04;99213.81;4361930;32;33815;-61
2023/03/24 08:47:28;;;;;;;7.53;5.00;;;;;;;23.49;35.07;99218.44;4361861;32;33980;-61
2023/03/24 08:49:58;;;;;;;7.80;5.10;;;;;;;23.49;35.08;99213.81;4361735;32;33555;-60
2023/03/24 08:52:26;;;;;;;7.35;5.12;;;;;;;23.50;35.09;99211.91;4361704;32;33346;-62
2023/03/24 08:54:54;;;;;;;7.80;5.32;;;;;;;23.49;35.10;99211.09;4360510;32;34528;-60
2023/03/24 08:57:22;;;;;;;7.30;5.18;;;;;;;23.49;35.12;99219.25;4361729;32;34010;-62
2023/03/24 08:59:50;;;;;;;7.15;5.05;;;;;;;23.49;35.13;99213.81;4361825;32;35250;-63
2023/03/24 09:02:17;;;;;;;6.85;4.82;;;;;;;23.50;35.14;99214.66;4361487;32;33398;-62
2023/03/24 09:04:45;;;;;;;8.23;5.12;;;;;;;23.49;35.13;99219.25;4361707;32;33917;-62
2023/03/24 09:07:13;;;;;;;9.88;5.05;;;;;;;23.50;35.14;99218.22;4372693;32;34684;-60
2023/03/24 09:09:40;;;;;;;7.18;4.70;;;;;;;23.50;35.14;99212.78;4360424;32;33380;-62
2023/03/24 09:12:08;;;;;;;7.47;5.25;;;;;;;23.50;35.15;99207.34;4361741;32;33454;-60
2023/03/24 09:14:36;;;;;;;7.53;5.12;;;;;;;23.49;35.16;99208.37;4361824;32;33825;-64
2023/03/24 09:17:03;;;;;;;9.18;5.57;;;;;;;23.49;35.17;99200.22;4361472;32;34653;-61
2023/03/24 09:19:32;;;;;;;8.18;5.18;;;;;;;23.50;35.17;99196.44;4360424;32;33458;-61
2023/03/24 09:22:00;;;;;;;8.23;5.12;;;;;;;23.50;35.17;99204.59;4361674;32;33409;-61
2023/03/24 09:24:27;;;;;;;8.38;5.00;;;;;;;23.51;35.17;99206.25;4372410;32;34631;-63
2023/03/24 09:26:55;;;;;;;6.93;5.07;;;;;;;23.50;35.19;99204.59;4361452;32;33989;-64
2023/03/24 09:29:24;;;;;;;7.72;4.82;;;;;;;23.50;35.20;99198.31;4360604;32;33268;-61
2023/03/24 09:31:52;;;;;;;7.20;5.18;;;;;;;23.49;35.21;99192.03;4342086;32;31349;-64
2023/03/24 09:34:20;;;;;;;11.10;5.20;;;;;;;23.49;35.20;99183.88;4374039;32;34741;-68
2023/03/24 09:36:48;;;;;;;6.95;5.10;;;;;;;23.50;35.21;99176.53;4367078;32;34847;-61
2023/03/24 09:39:15;;;;;;;9.75;5.40;;;;;;;23.50;35.20;99182.81;4360139;32;33429;-62
2023/03/24 09:41:46;;;;;;;;;;;;;;;23.49;35.20;99181.16;4360643;32;33182;-64
2023/03/24 09:44:40;;;;;;;7.12;5.03;;;;;;;23.58;35.04;99179.69;4360277;32;34845;-66
2023/03/24 09:47:53;;;;;;;7.72;5.10;;;;;;;23.53;35.10;99176.88;4360191;32;33793;-62
2023/03/24 09:50:34;;;;;;;10.48;5.72;;;;;;;23.52;35.13;99172.50;4357121;32;34474;-62
2023/03/24 09:53:06;;;;;;;10.20;5.60;;;;;;;23.50;35.11;99171.06;4359959;32;32893;-63
2023/03/24 09:55:34;;;;;;;8.10;5.70;;;;;;;23.46;34.98;99159.88;4372622;32;33775;-61
2023/03/24 09:58:03;;;;;;;8.30;5.55;;;;;;;23.47;34.70;99164.25;4359400;32;34415;-62
2023/03/24 10:00:31;;;;;;;7.55;5.10;;;;;;;23.46;34.71;99159.88;4332891;33;33820;-61
2023/03/24 10:03:01;;;;;;;7.50;4.57;;;;;;;23.48;34.89;99170.50;4340101;32;34149;-61
2023/03/24 10:05:36;;;;;;;8.40;4.95;;;;;;;23.47;34.95;99152.53;4356982;32;34625;-61
2023/03/24 10:08:34;;;;;;;9.38;5.07;;;;;;;23.49;34.94;99145.75;4334464;32;33739;-61
2023/03/24 10:11:14;;;;;;;7.72;5.28;;;;;;;23.50;34.94;99141.13;4344172;33;34476;-63
2023/03/24 10:13:44;;;;;;;10.02;5.60;;;;;;;23.48;35.00;99133.22;4346251;33;34156;-65
2023/03/24 10:16:24;;;;;;;7.93;4.93;;;;;;;23.49;35.02;99125.88;4344842;33;33849;-63
2023/03/24 10:19:16;;;;;;;8.45;5.15;;;;;;;23.49;35.04;99125.88;4346367;33;34245;-62
2023/03/24 10:21:51;;;;;;;9.10;5.62;;;;;;;23.49;35.07;99126.69;4342442;32;32918;-62
2023/03/24 10:24:43;;;;;;;7.72;5.00;;;;;;;23.48;35.13;99133.22;4359721;32;33430;-62
2023/03/24 10:27:16;;;;;;;7.25;4.78;;;;;;;23.50;35.13;99122.91;4371873;32;33915;-62
2023/03/24 10:29:45;;;;;;;7.60;4.93;;;;;;;23.48;35.17;99116.87;4359592;32;34631;-63
2023/03/24 10:32:21;;;;;;;9.90;5.40;;;;;;;23.49;35.16;99118.53;4359724;32;33583;-63
2023/03/24 10:34:54;;;;;;;8.25;4.57;;;;;;;23.49;34.99;99106.81;4347586;32;34290;-65
2023/03/24 10:37:22;;;;;;;7.80;5.18;;;;;;;23.49;34.91;99109.53;4359745;32;33588;-64
2023/03/24 10:39:50;;;;;;;6.60;4.47;;;;;;;23.49;34.79;99106.81;4360641;32;33920;-67
2023/03/24 10:42:20;;;;;;;8.48;4.93;;;;;;;23.49;34.72;99102.19;4347199;32;33794;-63
2023/03/24 11:03:25;;;;;;;10.63;5.30;;;;;;;23.50;34.17;99100.28;4325654;33;34349;-58
2023/03/24 11:06:00;;;;;;;10.27;4.47;;;;;;;23.48;34.09;99086.09;4309237;33;33596;-59
2023/03/24 11:08:34;;;;;;;9.07;4.75;;;;;;;23.49;34.14;99079.56;4316971;33;32945;-60
2023/03/24 11:11:30;;;;;;;10.20;4.22;;;;;;;23.48;33.97;99081.47;4293605;33;33571;-63
2023/03/24 11:14:00;;;;;;;10.13;4.72;;;;;;;23.50;34.20;99081.22;4299405;33;34662;-58
2023/03/24 11:16:34;;;;;;;9.32;4.62;;;;;;;23.49;34.16;99076.84;4305076;33;34701;-59
2023/03/24 11:19:04;;;;;;;7.87;4.72;;;;;;;23.49;34.19;99066.78;4327160;33;33268;-67
2023/03/24 11:21:34;;;;;;;7.85;4.28;;;;;;;23.50;33.87;99062.16;4307772;33;34473;-56
2023/03/24 11:24:03;;;;;;;;;;;;;;;23.50;33.94;99057.56;4319786;33;34776;-64
2023/03/24 11:26:32;;;;;;;12.05;4.57;;;;;;;23.59;33.88;99058.78;4319559;33;34246;-60
2023/03/24 11:29:19;;;;;;;9.30;4.90;;;;;;;23.54;33.63;99057.88;4307704;33;34285;-61
2023/03/24 11:31:57;;;;;;;8.48;4.45;;;;;;;23.52;33.79;99058.13;4345703;33;34510;-59
2023/03/24 11:34:37;;;;;;;9.57;4.82;;;;;;;23.53;33.23;99046.16;4322174;33;33982;-60
2023/03/24 11:37:08;;;;;;;10.77;4.15;;;;;;;23.51;33.21;99047.50;4320845;33;32821;-61
2023/03/24 11:39:35;;;;;;;7.00;4.15;;;;;;;23.52;33.13;99036.34;4304887;33;33445;-61
2023/03/24 11:42:09;;;;;;;7.47;3.92;;;;;;;23.53;32.97;99037.19;4304821;33;34536;-59
2023/03/24 11:44:36;;;;;;;10.38;3.78;;;;;;;23.54;32.63;99027.94;4317746;33;34162;-57
2023/03/24 11:47:07;;;;;;;10.88;4.30;;;;;;;23.53;32.82;99023.56;4321945;33;34583;-59
2023/03/24 11:50:00;;;;;;;7.28;3.95;;;;;;;23.54;32.75;99027.94;4332612;33;33340;-61
2023/03/24 11:52:30;;;;;;;8.15;3.67;;;;;;;23.55;32.37;99015.97;4326851;33;33839;-66
2023/03/24 11:54:58;;;;;;;7.65;3.37;;;;;;;23.54;32.35;99012.41;4307363;33;33937;-68
2023/03/24 11:57:46;;;;;;;8.65;3.15;;;;;;;23.54;32.26;99015.13;4329972;33;33894;-61
2023/03/24 12:00:27;;;;;;;5.53;2.70;;;;;;;23.57;32.11;99011.13;4322170;32;32491;-66
2023/03/24 12:03:09;;;;;;;7.55;3.12;;;;;;;23.57;31.84;99017.37;4347165;33;35160;-61
2023/03/24 12:05:41;;;;;;;6.00;3.05;;;;;;;23.56;31.92;99002.13;4322008;33;34007;-65
2023/03/24 12:08:22;;;;;;;6.40;3.00;;;;;;;23.56;32.03;98999.41;4317911;33;33512;-67
2023/03/24 12:11:13;;;;;;;5.25;2.83;;;;;;;23.55;31.86;98992.31;4292736;33;33145;-62
2023/03/24 12:13:47;;;;;;;4.78;3.20;;;;;;;23.56;32.00;98995.84;4305043;33;33958;-67
2023/03/24 12:16:31;;;;;;;7.40;3.30;;;;;;;23.53;32.32;98988.16;4281457;33;33446;-63